createdAt,value
2019-05-02T00:00:11.274Z,0
2019-05-02T00:05:27.440Z,0
2019-05-02T00:10:11.918Z,0
2019-05-02T00:15:11.407Z,0
2019-05-02T00:20:12.611Z,0
2019-05-02T00:25:16.087Z,0
2019-05-02T00:30:11.753Z,0
2019-05-02T00:35:13.856Z,0
2019-05-02T00:40:11.389Z,0
2019-05-02T00:45:14.181Z,0
2019-05-02T00:50:11.458Z,0
2019-05-02T00:55:10.920Z,0
2019-05-02T01:00:13.341Z,0
2019-05-02T01:05:11.454Z,0
2019-05-02T01:10:12.259Z,0
2019-05-02T01:15:14.627Z,0
2019-05-02T01:20:22.125Z,0
2019-05-02T01:25:15.336Z,0
2019-05-02T01:30:11.782Z,0
2019-05-02T01:35:14.930Z,0
2019-05-02T01:40:13.095Z,0
2019-05-02T01:45:12.600Z,0
2019-05-02T01:50:16.314Z,0
2019-05-02T01:55:11.183Z,0
2019-05-02T02:00:15.194Z,0
2019-05-02T02:05:14.123Z,0
2019-05-02T02:10:14.961Z,0
2019-05-02T02:15:10.679Z,0
2019-05-02T02:20:15.655Z,0
2019-05-02T02:25:12.955Z,0
2019-05-02T02:30:17.784Z,0
2019-05-02T02:35:12.693Z,0
2019-05-02T02:40:11.017Z,0
2019-05-02T02:45:18.534Z,0
2019-05-02T02:50:10.689Z,0
2019-05-02T02:55:16.190Z,0
2019-05-02T03:00:11.376Z,0
2019-05-02T03:10:10.927Z,0
2019-05-02T03:15:11.443Z,0
2019-05-02T03:20:11.357Z,0
2019-05-02T03:25:18.353Z,0
2019-05-02T03:30:29.380Z,0
2019-05-02T03:35:17.509Z,0
2019-05-02T03:40:10.536Z,0
2019-05-02T03:45:10.685Z,0
2019-05-02T03:50:11.017Z,0
2019-05-02T03:55:10.745Z,0
2019-05-02T04:00:13.575Z,0
2019-05-02T04:05:10.849Z,0
2019-05-02T04:10:13.418Z,0
2019-05-02T04:15:10.683Z,0
2019-05-02T04:20:12.784Z,0
2019-05-02T04:25:11.383Z,0.8
2019-05-02T04:30:13.844Z,0.8
2019-05-02T04:35:10.338Z,1.7
2019-05-02T04:40:12.291Z,2.5
2019-05-02T04:45:24.398Z,2.5
2019-05-02T04:50:18.311Z,3.3
2019-05-02T04:55:19.764Z,4.2
2019-05-02T05:00:11.599Z,5
2019-05-02T05:05:10.438Z,5.8
2019-05-02T05:10:10.724Z,7.5
2019-05-02T05:15:15.182Z,8.3
2019-05-02T05:20:14.118Z,7.5
2019-05-02T05:25:16.602Z,8.3
2019-05-02T05:30:15.549Z,9.2
2019-05-02T05:35:12.896Z,8.3
2019-05-02T05:40:10.686Z,8.3
2019-05-02T05:45:13.792Z,8.3
2019-05-02T05:50:10.627Z,9.2
2019-05-02T05:55:12.807Z,9.2
2019-05-02T06:00:16.025Z,9.2
2019-05-02T06:05:10.158Z,8.3
2019-05-02T06:10:10.884Z,8.3
2019-05-02T06:15:11.022Z,9.2
2019-05-02T06:20:10.762Z,11.7
2019-05-02T06:25:10.601Z,17.5
2019-05-02T06:30:10.736Z,19.2
2019-05-02T06:35:10.627Z,19.2
2019-05-02T06:40:10.772Z,20.8
2019-05-02T06:45:10.739Z,20.8
2019-05-02T06:50:13.857Z,20.8
2019-05-02T06:55:10.680Z,22.5
2019-05-02T07:00:10.837Z,24.2
2019-05-02T07:05:10.485Z,24.2
2019-05-02T07:10:10.691Z,25
2019-05-02T07:15:10.604Z,25.8
2019-05-02T07:20:10.749Z,26.7
2019-05-02T07:25:10.265Z,27.5
2019-05-02T07:30:10.378Z,27.5
2019-05-02T07:35:10.806Z,28.3
2019-05-02T07:40:12.122Z,29.2
2019-05-02T07:45:10.877Z,27.5
2019-05-02T07:50:11.945Z,30.8
2019-05-02T07:55:10.363Z,30.8
2019-05-02T08:00:10.661Z,32.5
2019-05-02T08:05:15.845Z,30
2019-05-02T08:10:10.897Z,26.7
2019-05-02T08:15:15.274Z,36.7
2019-05-02T08:20:13.571Z,36.7
2019-05-02T08:25:13.244Z,39.2
2019-05-02T08:30:13.838Z,37.5
2019-05-02T08:35:28.289Z,31.7
2019-05-02T08:40:12.084Z,38.3
2019-05-02T08:45:51.362Z,43.3
2019-05-02T08:50:10.881Z,26.7
2019-05-02T08:55:46.723Z,21.7
2019-05-02T09:00:39.493Z,25.8
2019-05-02T09:05:46.032Z,26.7
2019-05-02T09:10:10.358Z,18.3
2019-05-02T09:15:51.122Z,18.3
2019-05-02T09:20:18.794Z,20.8
2019-05-02T09:25:21.937Z,15
2019-05-02T09:30:17.010Z,20
2019-05-02T09:35:56.444Z,15
2019-05-02T09:40:15.076Z,13.3
2019-05-02T09:45:12.168Z,15.8
2019-05-02T09:50:12.704Z,14.2
2019-05-02T09:55:12.366Z,13.3
2019-05-02T10:00:12.783Z,14.2
2019-05-02T10:05:12.540Z,11.7
2019-05-02T10:10:12.844Z,10
2019-05-02T10:15:12.953Z,11.7
2019-05-02T10:20:12.525Z,12.5
2019-05-02T10:25:11.822Z,11.7
2019-05-02T10:30:15.482Z,8.3
2019-05-02T10:35:10.307Z,10
2019-05-02T10:40:13.423Z,12.5
2019-05-02T10:45:13.096Z,10.8
2019-05-02T10:50:11.658Z,5.8
2019-05-02T10:55:10.290Z,2.5
2019-05-02T11:00:12.042Z,5
2019-05-02T11:05:11.884Z,6.7
2019-05-02T11:10:12.171Z,5
2019-05-02T11:15:09.976Z,13.3
2019-05-02T11:20:12.156Z,15.8
2019-05-02T11:25:12.020Z,8.3
2019-05-02T11:30:12.118Z,10
2019-05-02T11:35:12.076Z,10
2019-05-02T11:40:12.213Z,13.3
2019-05-02T11:45:09.693Z,16.7
2019-05-02T11:50:11.784Z,14.2
2019-05-02T11:55:09.793Z,5.8
2019-05-02T12:00:12.225Z,8.3
2019-05-02T12:05:10.054Z,9.2
2019-05-02T12:10:12.410Z,10
2019-05-02T12:15:11.792Z,8.3
2019-05-02T12:20:11.731Z,5.8
2019-05-02T12:25:09.988Z,4.2
2019-05-02T12:30:11.660Z,13.3
2019-05-02T12:35:11.812Z,17.5
2019-05-02T12:40:12.070Z,16.7
2019-05-02T12:45:09.913Z,19.2
2019-05-02T12:50:11.969Z,15
2019-05-02T12:55:10.005Z,23.3
2019-05-02T13:00:10.392Z,21.7
2019-05-02T13:05:10.124Z,20.8
2019-05-02T13:10:11.805Z,21.7
2019-05-02T13:15:09.662Z,20
2019-05-02T13:20:11.894Z,19.2
2019-05-02T13:25:10.468Z,13.3
2019-05-02T13:30:12.213Z,23.3
2019-05-02T13:35:09.891Z,16.7
2019-05-02T13:40:11.817Z,25.8
2019-05-02T13:45:09.715Z,40
2019-05-02T13:50:09.917Z,21.7
2019-05-02T13:55:11.700Z,25
2019-05-02T14:00:09.731Z,25.8
2019-05-02T14:05:09.619Z,12.5
2019-05-02T14:10:11.879Z,16.7
2019-05-02T14:15:11.726Z,25
2019-05-02T14:20:11.548Z,16.7
2019-05-02T14:25:09.773Z,29.2
2019-05-02T14:30:09.584Z,25.8
2019-05-02T14:35:11.810Z,26.7
2019-05-02T14:40:11.509Z,30
2019-05-02T14:45:24.358Z,19.2
2019-05-02T14:50:22.798Z,21.7
2019-05-02T14:55:09.644Z,20.8
2019-05-02T15:00:09.707Z,46.7
2019-05-02T15:05:09.841Z,15.8
2019-05-02T15:10:09.573Z,30
2019-05-02T15:15:09.642Z,50.8
2019-05-02T15:20:09.484Z,103.3
2019-05-02T15:25:13.789Z,25
2019-05-02T15:30:09.495Z,71.7
2019-05-02T15:35:09.443Z,105.8
2019-05-02T15:40:47.041Z,21.7
2019-05-02T15:45:09.471Z,147.5
2019-05-02T15:50:09.496Z,120.8
2019-05-02T15:55:11.497Z,128.3
2019-05-02T16:00:09.786Z,98.3
2019-05-02T16:05:09.536Z,19.2
2019-05-02T16:10:09.474Z,18.3
2019-05-02T16:15:18.203Z,14.2
2019-05-02T16:20:10.684Z,14.2
2019-05-02T16:25:09.703Z,13.3
2019-05-02T16:30:12.758Z,15
2019-05-02T16:35:15.292Z,16.7
2019-05-02T16:40:09.540Z,15.8
2019-05-02T16:45:11.657Z,15
2019-05-02T16:50:12.039Z,13.3
2019-05-02T16:55:13.669Z,16.7
2019-05-02T17:00:11.297Z,11.7
2019-05-02T17:05:11.961Z,9.2
2019-05-02T17:10:14.634Z,8.3
2019-05-02T17:15:09.378Z,8.3
2019-05-02T17:20:12.902Z,12.5
2019-05-02T17:25:09.389Z,16.7
2019-05-02T17:30:09.419Z,9.2
2019-05-02T17:35:11.336Z,8.3
2019-05-02T17:40:09.478Z,8.3
2019-05-02T17:45:09.191Z,8.3
2019-05-02T17:50:16.342Z,5.8
2019-05-02T17:55:09.517Z,4.2
2019-05-02T18:00:13.063Z,3.3
2019-05-02T18:05:09.092Z,3.3
2019-05-02T18:10:14.304Z,1.7
2019-05-02T18:15:09.345Z,2.5
2019-05-02T18:20:09.364Z,1.7
2019-05-02T18:25:09.289Z,1.7
2019-05-02T18:30:09.210Z,0.8
2019-05-02T18:35:11.741Z,0.8
2019-05-02T18:40:09.576Z,0.8
2019-05-02T18:45:09.269Z,0
2019-05-02T18:50:09.395Z,0
2019-05-02T18:55:09.350Z,0
2019-05-02T19:00:09.319Z,0
2019-05-02T19:05:13.421Z,0
2019-05-02T19:10:09.382Z,0
2019-05-02T19:15:09.436Z,0
2019-05-02T19:20:11.041Z,0
2019-05-02T19:25:09.182Z,0
2019-05-02T19:30:09.402Z,0
2019-05-02T19:35:09.222Z,0
2019-05-02T19:40:09.188Z,0
2019-05-02T19:45:12.607Z,0
2019-05-02T19:50:09.109Z,0
2019-05-02T19:55:14.164Z,0
2019-05-02T20:00:09.154Z,0
2019-05-02T20:05:09.376Z,0
2019-05-02T20:10:08.924Z,0
2019-05-02T20:15:09.309Z,0
2019-05-02T20:20:09.101Z,0
2019-05-02T20:25:09.117Z,0
2019-05-02T20:30:08.942Z,0
2019-05-02T20:35:09.172Z,0
2019-05-02T20:40:09.135Z,0
2019-05-02T20:45:09.223Z,0
2019-05-02T20:50:09.361Z,0
2019-05-02T20:55:09.538Z,0
2019-05-02T21:00:09.253Z,0
2019-05-02T21:05:09.116Z,0
2019-05-02T21:10:09.190Z,0
2019-05-02T21:15:09.326Z,0
2019-05-02T21:20:09.073Z,0
2019-05-02T21:25:09.111Z,0
2019-05-02T21:30:09.395Z,0
2019-05-02T21:35:09.063Z,0
2019-05-02T21:40:08.944Z,0
2019-05-02T21:45:09.028Z,0
2019-05-02T21:50:09.013Z,0
2019-05-02T21:55:09.099Z,0
2019-05-02T22:00:08.968Z,0
2019-05-02T22:05:09.385Z,0
2019-05-02T22:10:08.945Z,0
2019-05-02T22:15:09.011Z,0
2019-05-02T22:20:09.299Z,0
2019-05-02T22:25:09.035Z,0
2019-05-02T22:30:09.132Z,0
2019-05-02T22:35:09.281Z,0
2019-05-02T22:40:09.136Z,0
2019-05-02T22:45:09.098Z,0
2019-05-02T22:50:09.099Z,0
2019-05-02T22:55:09.395Z,0
2019-05-02T23:00:08.907Z,0
2019-05-02T23:05:09.027Z,0
2019-05-02T23:10:08.900Z,0
2019-05-02T23:15:09.321Z,0
2019-05-02T23:20:09.095Z,0
2019-05-02T23:25:09.003Z,0
2019-05-02T23:30:08.967Z,0
2019-05-02T23:35:09.425Z,0
2019-05-02T23:40:09.186Z,0
2019-05-02T23:45:09.007Z,0
2019-05-02T23:50:08.739Z,0
2019-05-02T23:55:09.153Z,0
